createdAt,value
2023-04-18T00:01:23.049Z,88.27
2023-04-18T00:03:50.679Z,86.82
2023-04-18T00:06:17.311Z,86.55
2023-04-18T00:08:43.701Z,85.38
2023-04-18T00:11:10.107Z,85.42
2023-04-18T00:13:38.493Z,84.02
2023-04-18T00:16:05.949Z,83.01
2023-04-18T00:18:32.453Z,82.83
2023-04-18T00:20:58.927Z,81.70
2023-04-18T00:23:27.996Z,79.49
2023-04-18T00:25:54.495Z,78.77
2023-04-18T00:28:20.983Z,79.07
2023-04-18T00:30:47.508Z,77.82
2023-04-18T00:33:13.934Z,77.62
2023-04-18T00:35:40.545Z,76.90
2023-04-18T00:38:07.169Z,76.56
2023-04-18T00:40:34.077Z,74.96
2023-04-18T00:43:00.641Z,74.67
2023-04-18T00:45:27.140Z,74.33
2023-04-18T00:47:55.107Z,74.19
2023-04-18T00:50:22.897Z,74.93
2023-04-18T00:52:49.750Z,75.21
2023-04-18T00:55:16.478Z,74.67
2023-04-18T00:57:42.909Z,74.67
2023-04-18T01:00:12.853Z,75.44
2023-04-18T01:02:39.981Z,75.75
2023-04-18T01:05:08.075Z,76.51
2023-04-18T01:07:37.358Z,77.61
2023-04-18T01:10:04.370Z,77.35
2023-04-18T01:12:31.272Z,77.81
2023-04-18T01:14:58.813Z,77.37
2023-04-18T01:17:25.352Z,77.03
2023-04-18T01:19:51.840Z,77.17
2023-04-18T01:22:19.968Z,77.38
2023-04-18T01:24:46.484Z,77.05
2023-04-18T01:27:13.617Z,76.19
2023-04-18T01:29:40.992Z,76.43
2023-04-18T01:32:07.615Z,76.19
2023-04-18T01:34:34.093Z,75.68
2023-04-18T01:37:00.587Z,75.18
2023-04-18T01:39:27.150Z,75.59
2023-04-18T01:41:53.667Z,75.67
2023-04-18T01:44:20.261Z,75.42
2023-04-18T01:46:46.822Z,75.46
2023-04-18T01:49:13.334Z,75.39
2023-04-18T01:51:39.964Z,76.08
2023-04-18T01:54:06.417Z,75.61
2023-04-18T01:56:32.832Z,76.24
2023-04-18T01:58:59.245Z,76.03
2023-04-18T02:01:25.727Z,75.82
2023-04-18T02:03:52.358Z,75.67
2023-04-18T02:06:18.876Z,76.63
2023-04-18T02:08:45.329Z,76.57
2023-04-18T02:11:11.853Z,76.31
2023-04-18T02:13:38.365Z,75.88
2023-04-18T02:16:05.298Z,76.37
2023-04-18T02:18:34.561Z,76.15
2023-04-18T02:21:01.023Z,76.35
2023-04-18T02:23:27.519Z,76.82
2023-04-18T02:25:54.541Z,76.67
2023-04-18T02:28:20.999Z,77.26
2023-04-18T02:30:47.471Z,77.03
2023-04-18T02:33:13.872Z,76.90
2023-04-18T02:35:40.720Z,76.81
2023-04-18T02:38:07.230Z,77.13
2023-04-18T02:40:33.754Z,76.53
2023-04-18T02:43:00.259Z,77.52
2023-04-18T02:45:26.777Z,76.98
2023-04-18T02:47:55.879Z,76.94
2023-04-18T02:50:23.792Z,77.04
2023-04-18T02:52:50.454Z,77.09
2023-04-18T02:55:17.024Z,77.32
2023-04-18T02:57:43.417Z,77.68
2023-04-18T03:00:10.394Z,77.40
2023-04-18T03:02:36.966Z,77.54
2023-04-18T03:05:03.742Z,77.28
2023-04-18T03:07:30.893Z,77.52
2023-04-18T03:09:57.538Z,77.54
2023-04-18T03:12:23.972Z,77.62
2023-04-18T03:14:50.412Z,77.74
2023-04-18T03:17:16.902Z,78.54
2023-04-18T03:19:43.363Z,78.04
2023-04-18T03:22:10.009Z,78.04
2023-04-18T03:24:36.429Z,78.04
2023-04-18T03:27:03.000Z,78.36
2023-04-18T03:29:29.392Z,78.10
2023-04-18T03:31:55.837Z,78.25
2023-04-18T03:34:22.328Z,78.68
2023-04-18T03:36:48.817Z,78.31
2023-04-18T03:39:15.367Z,78.85
2023-04-18T03:41:41.871Z,78.69
2023-04-18T03:44:09.063Z,79.03
2023-04-18T03:46:35.720Z,79.23
2023-04-18T03:49:02.165Z,79.02
2023-04-18T03:51:33.205Z,79.46
2023-04-18T03:53:59.594Z,79.30
2023-04-18T03:56:26.278Z,79.31
2023-04-18T03:58:52.710Z,79.44
2023-04-18T04:01:19.118Z,79.75
2023-04-18T04:03:45.841Z,79.69
2023-04-18T04:06:12.380Z,79.67
2023-04-18T04:08:38.848Z,79.53
2023-04-18T04:11:05.284Z,79.71
2023-04-18T04:13:31.734Z,79.82
2023-04-18T04:15:58.260Z,79.37
2023-04-18T04:18:30.882Z,79.77
2023-04-18T04:20:59.120Z,79.59
2023-04-18T04:23:26.837Z,79.93
2023-04-18T04:25:54.461Z,79.89
2023-04-18T04:28:24.067Z,79.68
2023-04-18T04:30:53.855Z,79.73
2023-04-18T04:33:21.685Z,80.00
2023-04-18T04:35:48.224Z,80.41
2023-04-18T04:38:15.408Z,80.38
2023-04-18T04:40:42.698Z,80.29
2023-04-18T04:43:12.834Z,80.91
2023-04-18T04:45:41.426Z,81.06
2023-04-18T04:48:08.326Z,80.45
2023-04-18T04:50:39.031Z,81.51
2023-04-18T04:53:06.376Z,80.64
2023-04-18T04:55:33.569Z,80.64
2023-04-18T04:58:00.440Z,81.51
2023-04-18T05:00:26.982Z,81.54
2023-04-18T05:02:56.067Z,81.36
2023-04-18T05:05:22.774Z,81.58
2023-04-18T05:07:49.259Z,81.15
2023-04-18T05:10:15.781Z,81.79
2023-04-18T05:12:42.222Z,82.58
2023-04-18T05:15:08.981Z,82.65
2023-04-18T05:17:35.440Z,82.39
2023-04-18T05:20:02.010Z,82.72
2023-04-18T05:22:28.487Z,82.22
2023-04-18T05:24:54.902Z,82.71
2023-04-18T05:27:21.681Z,82.65
2023-04-18T05:29:49.357Z,82.67
2023-04-18T05:32:16.048Z,82.75
2023-04-18T05:34:42.952Z,83.59
2023-04-18T05:37:09.477Z,83.89
2023-04-18T05:39:36.017Z,83.32
2023-04-18T05:42:03.783Z,83.49
2023-04-18T05:44:30.431Z,83.47
2023-04-18T05:46:57.011Z,83.65
2023-04-18T05:49:23.717Z,84.39
2023-04-18T05:51:50.663Z,83.66
2023-04-18T05:54:17.204Z,83.58
2023-04-18T05:56:43.648Z,84.74
2023-04-18T05:59:10.506Z,85.29
2023-04-18T06:01:36.946Z,84.93
2023-04-18T06:04:03.531Z,84.36
2023-04-18T06:06:31.426Z,85.03
2023-04-18T06:08:58.003Z,84.50
2023-04-18T06:11:24.597Z,84.31
2023-04-18T06:13:51.007Z,85.02
2023-04-18T06:16:17.750Z,84.37
2023-04-18T06:18:44.263Z,84.42
2023-04-18T06:21:10.777Z,84.68
2023-04-18T06:23:38.511Z,84.10
2023-04-18T06:26:06.082Z,84.74
2023-04-18T06:28:32.641Z,84.56
2023-04-18T06:30:59.121Z,83.72
2023-04-18T06:33:25.546Z,83.65
2023-04-18T06:35:52.754Z,83.65
2023-04-18T06:38:19.257Z,83.36
2023-04-18T06:40:45.752Z,82.24
2023-04-18T06:43:12.208Z,82.93
2023-04-18T06:45:38.978Z,82.04
2023-04-18T06:48:05.995Z,82.11
2023-04-18T06:50:32.487Z,81.79
2023-04-18T06:52:58.968Z,81.24
2023-04-18T06:55:25.516Z,81.30
2023-04-18T06:57:52.007Z,81.86
2023-04-18T07:00:18.776Z,82.05
2023-04-18T07:02:45.633Z,80.81
2023-04-18T07:05:12.383Z,80.29
2023-04-18T07:07:39.142Z,81.28
2023-04-18T07:10:06.741Z,80.92
2023-04-18T07:12:33.835Z,81.62
2023-04-18T07:15:00.282Z,81.02
2023-04-18T07:17:26.813Z,81.44
2023-04-18T07:19:53.232Z,81.75
2023-04-18T07:22:19.740Z,81.04
2023-04-18T07:24:46.196Z,81.51
2023-04-18T07:27:12.596Z,80.92
2023-04-18T07:29:39.091Z,80.57
2023-04-18T07:32:08.018Z,80.33
2023-04-18T07:34:36.233Z,80.81
2023-04-18T07:37:02.978Z,80.15
2023-04-18T07:39:29.485Z,80.19
2023-04-18T07:41:55.986Z,80.35
2023-04-18T07:44:22.505Z,80.34
2023-04-18T07:46:49.039Z,78.79
2023-04-18T07:49:16.240Z,78.57
2023-04-18T07:51:42.946Z,78.57
2023-04-18T07:54:11.132Z,78.22
2023-04-18T07:56:37.687Z,78.09
2023-04-18T07:59:04.190Z,78.11
2023-04-18T08:01:30.978Z,77.04
2023-04-18T08:04:01.603Z,77.37
2023-04-18T08:06:29.104Z,77.27
2023-04-18T08:08:55.637Z,76.10
2023-04-18T08:11:22.221Z,76.57
2023-04-18T08:13:48.660Z,77.51
2023-04-18T08:16:17.353Z,77.09
2023-04-18T08:18:44.444Z,78.06
2023-04-18T08:21:10.972Z,76.82
2023-04-18T08:23:37.599Z,76.25
2023-04-18T08:26:04.154Z,75.59
2023-04-18T08:28:30.755Z,75.16
2023-04-18T08:30:57.230Z,74.42
2023-04-18T08:33:24.563Z,73.70
2023-04-18T08:35:51.849Z,74.08
2023-04-18T08:38:18.911Z,74.46
2023-04-18T08:40:46.145Z,75.87
2023-04-18T08:43:15.014Z,75.59
2023-04-18T08:45:43.042Z,75.70
2023-04-18T08:48:16.321Z,75.65
2023-04-18T08:50:43.444Z,75.47
2023-04-18T08:53:10.210Z,74.68
2023-04-18T08:55:37.492Z,74.93
2023-04-18T08:58:07.856Z,75.27
2023-04-18T09:00:35.218Z,75.90
2023-04-18T09:03:03.845Z,76.75
2023-04-18T09:05:30.630Z,76.73
2023-04-18T09:07:57.152Z,76.46
2023-04-18T09:10:34.661Z,75.66
2023-04-18T09:13:03.425Z,74.89
2023-04-18T09:15:30.707Z,75.33
2023-04-18T09:17:59.360Z,74.85
2023-04-18T09:20:43.568Z,74.92
2023-04-18T09:23:11.470Z,75.97
2023-04-18T09:25:46.757Z,75.38
2023-04-18T09:28:29.681Z,74.47
2023-04-18T09:30:57.674Z,74.24
2023-04-18T09:33:29.265Z,75.20
2023-04-18T09:35:57.136Z,74.76
2023-04-18T09:38:40.872Z,74.67
2023-04-18T09:41:09.252Z,73.70
2023-04-18T09:43:35.760Z,73.33
2023-04-18T09:46:04.293Z,72.54
2023-04-18T09:48:31.300Z,72.33
2023-04-18T09:51:00.578Z,72.85
2023-04-18T09:53:28.381Z,71.29
2023-04-18T09:55:57.549Z,71.80
2023-04-18T09:58:27.673Z,72.43
2023-04-18T10:00:54.246Z,72.70
2023-04-18T10:03:26.689Z,72.29
2023-04-18T10:05:53.331Z,72.74
2023-04-18T10:08:20.731Z,72.45
2023-04-18T10:10:47.319Z,72.50
2023-04-18T10:13:14.289Z,72.61
2023-04-18T10:15:43.619Z,72.61
2023-04-18T10:18:15.456Z,73.56
2023-04-18T10:20:42.273Z,74.30
2023-04-18T10:23:30.712Z,73.14
2023-04-18T10:25:57.918Z,73.58
2023-04-18T10:28:24.806Z,71.35
2023-04-18T10:30:53.905Z,69.40
2023-04-18T10:33:33.724Z,69.87
2023-04-18T10:36:09.378Z,70.08
2023-04-18T10:38:38.849Z,70.30
2023-04-18T10:41:32.632Z,71.43
2023-04-18T10:44:19.227Z,68.58
2023-04-18T10:46:48.395Z,68.92
2023-04-18T10:49:21.663Z,66.52
2023-04-18T10:51:49.896Z,67.53
2023-04-18T10:54:30.847Z,64.73
2023-04-18T10:57:01.707Z,66.41
2023-04-18T10:59:30.073Z,66.12
2023-04-18T11:02:02.457Z,65.73
2023-04-18T11:04:29.155Z,66.19
2023-04-18T11:06:57.251Z,65.74
2023-04-18T11:09:24.425Z,65.18
2023-04-18T11:12:11.209Z,63.88
2023-04-18T11:14:45.430Z,64.22
2023-04-18T11:17:18.424Z,65.66
2023-04-18T11:19:45.382Z,65.03
2023-04-18T11:22:12.413Z,66.21
2023-04-18T11:24:39.422Z,66.47
2023-04-18T11:27:10.294Z,67.01
2023-04-18T11:29:37.052Z,66.66
2023-04-18T11:32:07.214Z,66.94
2023-04-18T11:34:34.252Z,67.69
2023-04-18T11:37:00.851Z,67.00
2023-04-18T11:39:27.846Z,69.57
2023-04-18T11:41:56.449Z,67.06
2023-04-18T11:44:24.747Z,67.80
2023-04-18T11:46:52.126Z,67.15
2023-04-18T11:49:32.154Z,67.18
2023-04-18T11:51:59.810Z,67.67
2023-04-18T11:54:43.849Z,67.64
2023-04-18T11:57:30.026Z,67.46
2023-04-18T11:59:58.366Z,66.44
2023-04-18T12:02:38.750Z,68.08
2023-04-18T12:05:05.698Z,67.06
2023-04-18T12:07:35.147Z,68.63
2023-04-18T12:10:03.001Z,66.04
2023-04-18T12:12:29.599Z,66.04
2023-04-18T12:15:13.888Z,65.15
2023-04-18T12:17:44.177Z,65.10
2023-04-18T12:20:13.270Z,65.77
2023-04-18T12:22:49.527Z,65.39
2023-04-18T12:25:23.385Z,64.95
2023-04-18T12:27:54.577Z,67.89
2023-04-18T12:30:23.390Z,65.29
2023-04-18T12:32:51.961Z,65.10
2023-04-18T12:35:19.534Z,64.90
2023-04-18T12:37:52.190Z,65.36
2023-04-18T12:40:19.627Z,66.33
2023-04-18T12:42:47.201Z,65.42
2023-04-18T12:45:15.488Z,64.81
2023-04-18T12:47:44.191Z,66.34
2023-04-18T12:50:14.566Z,66.79
2023-04-18T12:52:41.135Z,67.77
2023-04-18T12:55:08.860Z,67.27
2023-04-18T12:57:35.982Z,68.60
2023-04-18T13:00:05.667Z,68.07
2023-04-18T13:02:34.426Z,67.90
2023-04-18T13:05:01.088Z,67.97
2023-04-18T13:07:27.614Z,67.25
2023-04-18T13:09:54.098Z,68.74
2023-04-18T13:12:21.077Z,68.50
2023-04-18T13:14:47.587Z,68.82
2023-04-18T13:17:14.070Z,68.37
2023-04-18T13:19:40.433Z,69.09
2023-04-18T13:22:07.004Z,69.45
2023-04-18T13:24:33.389Z,69.30
2023-04-18T13:27:01.636Z,68.41
2023-04-18T13:29:28.286Z,67.38
2023-04-18T13:31:54.831Z,67.88
2023-04-18T13:34:21.324Z,67.01
2023-04-18T13:36:47.746Z,67.96
2023-04-18T13:39:15.224Z,68.26
2023-04-18T13:41:41.889Z,66.89
2023-04-18T13:44:08.379Z,67.48
2023-04-18T13:46:35.025Z,65.74
2023-04-18T13:49:01.549Z,66.50
2023-04-18T13:51:28.082Z,65.50
2023-04-18T13:53:54.672Z,66.38
2023-04-18T13:56:21.245Z,66.89
2023-04-18T13:58:47.768Z,67.00
2023-04-18T14:01:16.285Z,64.78
2023-04-18T14:03:43.863Z,62.30
2023-04-18T14:06:10.971Z,63.92
2023-04-18T14:08:37.440Z,62.87
2023-04-18T14:11:04.122Z,62.73
2023-04-18T14:13:30.801Z,63.57
2023-04-18T14:15:57.316Z,63.90
2023-04-18T14:18:24.607Z,63.68
2023-04-18T14:20:51.655Z,63.17
2023-04-18T14:23:18.158Z,64.18
2023-04-18T14:25:44.704Z,63.30
2023-04-18T14:28:11.995Z,63.66
2023-04-18T14:30:39.744Z,64.32
2023-04-18T14:33:07.537Z,63.87
2023-04-18T14:35:34.089Z,64.10
2023-04-18T14:38:00.606Z,64.40
2023-04-18T14:40:27.143Z,63.52
2023-04-18T14:42:53.741Z,64.89
2023-04-18T14:45:20.323Z,62.19
2023-04-18T14:47:46.914Z,63.35
2023-04-18T14:50:13.782Z,62.08
2023-04-18T14:52:40.941Z,60.82
2023-04-18T14:55:08.653Z,59.10
2023-04-18T14:57:36.767Z,59.33
2023-04-18T15:00:05.639Z,60.81
2023-04-18T15:02:32.402Z,60.30
2023-04-18T15:04:59.244Z,60.81
2023-04-18T15:07:26.138Z,60.17
2023-04-18T15:09:52.608Z,58.44
2023-04-18T15:12:19.135Z,58.45
2023-04-18T15:14:45.765Z,59.17
2023-04-18T15:17:12.275Z,58.96
2023-04-18T15:19:38.752Z,58.90
2023-04-18T15:22:05.211Z,58.93
2023-04-18T15:24:31.671Z,58.41
2023-04-18T15:26:58.736Z,60.52
2023-04-18T15:29:25.253Z,59.44
2023-04-18T15:31:51.707Z,59.01
2023-04-18T15:34:18.316Z,57.99
2023-04-18T15:36:47.022Z,57.86
2023-04-18T15:39:13.763Z,58.56
2023-04-18T15:41:42.073Z,58.43
2023-04-18T15:44:08.671Z,57.76
2023-04-18T15:46:36.962Z,58.76
2023-04-18T15:49:03.426Z,58.47
2023-04-18T15:51:30.908Z,57.61
2023-04-18T15:53:57.441Z,58.00
2023-04-18T15:56:26.124Z,57.68
2023-04-18T15:58:54.664Z,58.44
2023-04-18T16:01:21.169Z,57.93
2023-04-18T16:03:47.706Z,59.57
2023-04-18T16:06:14.980Z,59.39
2023-04-18T16:08:41.614Z,57.87
2023-04-18T16:11:09.061Z,58.47
2023-04-18T16:13:38.518Z,57.60
2023-04-18T16:16:05.746Z,58.51
2023-04-18T16:18:32.578Z,59.99
2023-04-18T16:20:59.019Z,59.52
2023-04-18T16:23:26.754Z,57.74
2023-04-18T16:25:55.218Z,59.15
2023-04-18T16:28:22.367Z,59.71
2023-04-18T16:30:49.014Z,60.41
2023-04-18T16:33:16.009Z,60.99
2023-04-18T16:35:42.526Z,60.43
2023-04-18T16:38:09.055Z,60.46
2023-04-18T16:40:35.807Z,60.27
2023-04-18T16:43:02.338Z,61.28
2023-04-18T16:45:28.738Z,60.83
2023-04-18T16:47:55.245Z,60.57
2023-04-18T16:50:22.571Z,62.25
2023-04-18T16:52:48.991Z,61.65
2023-04-18T16:55:15.551Z,61.60
2023-04-18T16:57:41.988Z,62.43
2023-04-18T17:00:10.193Z,62.26
2023-04-18T17:02:39.634Z,61.98
2023-04-18T17:05:06.732Z,61.64
2023-04-18T17:07:33.147Z,62.48
2023-04-18T17:09:59.607Z,62.10
2023-04-18T17:12:26.496Z,62.93
2023-04-18T17:14:52.942Z,62.29
2023-04-18T17:17:19.412Z,63.27
2023-04-18T17:19:46.480Z,63.35
2023-04-18T17:22:12.957Z,63.82
2023-04-18T17:24:39.409Z,63.72
2023-04-18T17:27:05.836Z,64.12
2023-04-18T17:29:32.298Z,63.33
2023-04-18T17:31:58.848Z,63.48
2023-04-18T17:34:25.505Z,63.91
2023-04-18T17:36:51.896Z,62.43
2023-04-18T17:39:18.325Z,62.92
2023-04-18T17:41:44.873Z,62.49
2023-04-18T17:44:11.453Z,63.57
2023-04-18T17:46:37.998Z,64.26
2023-04-18T17:49:04.877Z,64.58
2023-04-18T17:51:31.434Z,64.84
2023-04-18T17:53:58.325Z,65.79
2023-04-18T17:56:24.790Z,65.43
2023-04-18T17:58:51.693Z,66.00
2023-04-18T18:01:20.058Z,66.04
2023-04-18T18:03:47.347Z,66.16
2023-04-18T18:06:15.333Z,66.11
2023-04-18T18:08:43.100Z,66.72
2023-04-18T18:11:10.640Z,67.19
2023-04-18T18:13:38.884Z,67.83
2023-04-18T18:16:06.309Z,67.74
2023-04-18T18:18:32.850Z,68.35
2023-04-18T18:20:59.394Z,69.03
2023-04-18T18:23:25.956Z,68.23
2023-04-18T18:25:52.855Z,68.22
2023-04-18T18:28:19.386Z,68.42
2023-04-18T18:30:45.939Z,69.13
2023-04-18T18:33:12.391Z,68.79
2023-04-18T18:35:38.937Z,69.92
2023-04-18T18:38:05.402Z,70.14
2023-04-18T18:40:31.918Z,70.14
2023-04-18T18:42:59.385Z,70.49
2023-04-18T18:45:25.987Z,70.41
2023-04-18T18:47:52.918Z,71.00
2023-04-18T18:50:19.476Z,71.63
2023-04-18T18:52:45.922Z,71.92
2023-04-18T18:55:12.438Z,71.73
2023-04-18T18:57:38.936Z,72.07
2023-04-18T19:00:12.262Z,71.65
2023-04-18T19:02:39.650Z,71.27
2023-04-18T19:05:07.323Z,71.09
2023-04-18T19:07:33.810Z,71.13
2023-04-18T19:10:01.684Z,71.40
2023-04-18T19:12:29.113Z,70.63
2023-04-18T19:14:55.691Z,70.23
2023-04-18T19:17:24.599Z,70.11
2023-04-18T19:19:53.017Z,71.02
2023-04-18T19:22:19.496Z,71.09
2023-04-18T19:24:45.993Z,71.15
2023-04-18T19:27:12.532Z,71.11
2023-04-18T19:29:39.394Z,71.48
2023-04-18T19:32:06.389Z,71.39
2023-04-18T19:34:32.949Z,71.66
2023-04-18T19:37:00.034Z,71.65
2023-04-18T19:39:26.645Z,71.62
2023-04-18T19:41:53.165Z,71.25
2023-04-18T19:44:19.553Z,71.77
2023-04-18T19:46:46.070Z,72.06
2023-04-18T19:49:12.920Z,72.08
2023-04-18T19:51:40.184Z,72.07
2023-04-18T19:54:06.703Z,72.55
2023-04-18T19:56:33.171Z,72.34
2023-04-18T19:58:59.979Z,72.54
2023-04-18T20:01:26.476Z,72.41
2023-04-18T20:03:55.021Z,72.35
2023-04-18T20:06:21.899Z,72.84
2023-04-18T20:08:48.405Z,72.52
2023-04-18T20:11:14.922Z,72.45
2023-04-18T20:13:41.468Z,72.88
2023-04-18T20:16:08.998Z,72.85
2023-04-18T20:18:37.865Z,73.25
2023-04-18T20:21:06.488Z,73.48
2023-04-18T20:23:33.697Z,73.16
2023-04-18T20:26:00.278Z,73.43
2023-04-18T20:28:26.988Z,73.47
2023-04-18T20:30:53.647Z,73.59
2023-04-18T20:33:20.109Z,73.33
2023-04-18T20:35:46.870Z,73.37
2023-04-18T20:38:14.686Z,73.62
2023-04-18T20:40:48.944Z,73.42
2023-04-18T20:43:17.327Z,73.78
2023-04-18T20:45:43.816Z,73.56
2023-04-18T20:48:10.320Z,73.85
2023-04-18T20:50:36.850Z,74.16
2023-04-18T20:53:03.979Z,74.26
2023-04-18T20:55:30.499Z,74.06
2023-04-18T20:57:57.010Z,74.07
2023-04-18T21:00:23.582Z,73.97
2023-04-18T21:02:50.347Z,73.81
2023-04-18T21:05:16.875Z,73.94
2023-04-18T21:07:45.227Z,74.42
2023-04-18T21:10:12.271Z,74.16
2023-04-18T21:12:38.727Z,74.69
2023-04-18T21:15:05.709Z,74.35
2023-04-18T21:17:32.343Z,74.49
2023-04-18T21:19:58.995Z,74.96
2023-04-18T21:22:25.553Z,74.93
2023-04-18T21:24:52.009Z,75.10
2023-04-18T21:27:18.399Z,75.24
2023-04-18T21:29:44.870Z,75.43
2023-04-18T21:32:11.327Z,75.65
2023-04-18T21:34:37.798Z,75.65
2023-04-18T21:37:04.237Z,75.78
2023-04-18T21:39:31.006Z,75.97
2023-04-18T21:41:57.584Z,76.23
2023-04-18T21:44:24.012Z,76.56
2023-04-18T21:46:50.781Z,76.56
2023-04-18T21:49:17.307Z,76.52
2023-04-18T21:51:44.771Z,76.69
2023-04-18T21:54:11.265Z,77.11
2023-04-18T21:56:37.789Z,77.22
2023-04-18T21:59:04.244Z,77.67
2023-04-18T22:01:30.746Z,77.74
2023-04-18T22:03:57.413Z,77.53
2023-04-18T22:06:24.106Z,77.69
2023-04-18T22:08:51.580Z,77.89
2023-04-18T22:11:18.763Z,78.20
2023-04-18T22:13:45.853Z,78.38
2023-04-18T22:16:12.354Z,78.23
2023-04-18T22:18:38.799Z,78.70
2023-04-18T22:21:06.078Z,78.89
2023-04-18T22:23:32.582Z,79.10
2023-04-18T22:25:59.132Z,79.26
2023-04-18T22:28:27.947Z,79.60
2023-04-18T22:30:54.495Z,79.64
2023-04-18T22:33:20.999Z,79.96
2023-04-18T22:35:48.042Z,80.44
2023-04-18T22:38:14.446Z,80.46
2023-04-18T22:40:40.949Z,80.97
2023-04-18T22:43:07.392Z,81.22
2023-04-18T22:45:34.760Z,81.10
2023-04-18T22:48:01.274Z,81.54
2023-04-18T22:50:27.801Z,81.34
2023-04-18T22:52:54.243Z,81.57
2023-04-18T22:55:20.808Z,81.46
2023-04-18T22:57:47.265Z,81.58
2023-04-18T23:00:14.285Z,81.84
2023-04-18T23:02:41.496Z,81.69
2023-04-18T23:05:09.002Z,81.96
2023-04-18T23:07:35.529Z,82.65
2023-04-18T23:10:05.026Z,82.72
2023-04-18T23:12:31.466Z,82.88
2023-04-18T23:14:57.859Z,83.16
2023-04-18T23:17:24.318Z,83.38
2023-04-18T23:19:50.838Z,83.56
2023-04-18T23:22:17.341Z,83.54
2023-04-18T23:24:43.743Z,83.74
2023-04-18T23:27:10.145Z,84.05
2023-04-18T23:29:39.011Z,84.54
2023-04-18T23:32:06.383Z,84.39
2023-04-18T23:34:32.816Z,84.40
2023-04-18T23:37:00.380Z,84.88
2023-04-18T23:39:26.835Z,84.98
2023-04-18T23:41:53.275Z,85.50
2023-04-18T23:44:19.854Z,85.51
2023-04-18T23:46:47.182Z,85.69
2023-04-18T23:49:14.103Z,86.30
2023-04-18T23:51:40.622Z,86.53
2023-04-18T23:54:07.616Z,86.54
2023-04-18T23:56:34.489Z,86.80
2023-04-18T23:59:00.923Z,86.82
